sensor_id;sensor_type;location;lat;lon;timestamp;temperature;humidity
10417;DHT22;62605;49.432;8.680;2023-08-24T00:00:22;22.10;1.00
10417;DHT22;62605;49.432;8.680;2023-08-24T00:02:49;22.20;1.00
10417;DHT22;62605;49.432;8.680;2023-08-24T00:05:16;22.20;1.00
10417;DHT22;62605;49.432;8.680;2023-08-24T00:07:43;22.00;1.00
10417;DHT22;62605;49.432;8.680;2023-08-24T00:10:10;21.80;1.00
10417;DHT22;62605;49.432;8.680;2023-08-24T00:12:39;21.70;1.00
10417;DHT22;62605;49.432;8.680;2023-08-24T00:15:09;21.60;1.00
10417;DHT22;62605;49.432;8.680;2023-08-24T00:17:36;21.50;1.00
10417;DHT22;62605;49.432;8.680;2023-08-24T00:20:06;21.30;1.00
10417;DHT22;62605;49.432;8.680;2023-08-24T00:22:37;21.20;1.00
10417;DHT22;62605;49.432;8.680;2023-08-24T00:25:05;21.20;1.00
10417;DHT22;62605;49.432;8.680;2023-08-24T00:27:33;21.10;1.00
10417;DHT22;62605;49.432;8.680;2023-08-24T00:30:03;21.10;1.00
10417;DHT22;62605;49.432;8.680;2023-08-24T00:32:32;21.10;1.00
10417;DHT22;62605;49.432;8.680;2023-08-24T00:35:00;21.00;1.00
10417;DHT22;62605;49.432;8.680;2023-08-24T00:37:27;21.00;1.00
10417;DHT22;62605;49.432;8.680;2023-08-24T00:39:55;20.90;1.00
10417;DHT22;62605;49.432;8.680;2023-08-24T00:42:22;20.90;1.00
10417;DHT22;62605;49.432;8.680;2023-08-24T00:44:49;20.80;1.00
10417;DHT22;62605;49.432;8.680;2023-08-24T00:47:18;20.80;1.00
10417;DHT22;62605;49.432;8.680;2023-08-24T00:49:45;20.80;1.00
10417;DHT22;62605;49.432;8.680;2023-08-24T00:52:13;20.70;1.00
10417;DHT22;62605;49.432;8.680;2023-08-24T00:54:41;20.60;1.00
10417;DHT22;62605;49.432;8.680;2023-08-24T00:57:08;20.50;1.00
10417;DHT22;62605;49.432;8.680;2023-08-24T00:59:36;20.50;1.00
10417;DHT22;62605;49.432;8.680;2023-08-24T01:02:03;20.50;1.00
10417;DHT22;62605;49.432;8.680;2023-08-24T01:04:32;20.50;1.00
10417;DHT22;62605;49.432;8.680;2023-08-24T01:06:59;20.40;1.00
10417;DHT22;62605;49.432;8.680;2023-08-24T01:09:27;20.40;1.00
10417;DHT22;62605;49.432;8.680;2023-08-24T01:11:59;20.40;1.00
10417;DHT22;62605;49.432;8.680;2023-08-24T01:14:36;20.60;1.00
10417;DHT22;62605;49.432;8.680;2023-08-24T01:17:09;20.70;1.00
10417;DHT22;62605;49.432;8.680;2023-08-24T01:19:41;20.70;1.00
10417;DHT22;62605;49.432;8.680;2023-08-24T01:22:20;20.80;1.00
10417;DHT22;62605;49.432;8.680;2023-08-24T01:24:53;20.80;1.00
10417;DHT22;62605;49.432;8.680;2023-08-24T01:27:22;20.80;1.00
10417;DHT22;62605;49.432;8.680;2023-08-24T01:29:50;20.80;1.00
10417;DHT22;62605;49.432;8.680;2023-08-24T01:32:22;20.90;1.00
10417;DHT22;62605;49.432;8.680;2023-08-24T01:34:49;20.90;1.00
10417;DHT22;62605;49.432;8.680;2023-08-24T01:37:16;20.90;1.00
10417;DHT22;62605;49.432;8.680;2023-08-24T01:39:48;20.90;1.00
10417;DHT22;62605;49.432;8.680;2023-08-24T01:42:22;21.00;1.00
10417;DHT22;62605;49.432;8.680;2023-08-24T01:44:57;21.00;1.00
10417;DHT22;62605;49.432;8.680;2023-08-24T01:47:26;21.00;1.00
10417;DHT22;62605;49.432;8.680;2023-08-24T01:49:54;20.90;1.00
10417;DHT22;62605;49.432;8.680;2023-08-24T01:52:22;21.00;1.00
10417;DHT22;62605;49.432;8.680;2023-08-24T01:54:50;21.00;1.00
10417;DHT22;62605;49.432;8.680;2023-08-24T01:57:17;20.90;1.00
10417;DHT22;62605;49.432;8.680;2023-08-24T01:59:45;20.80;1.00
10417;DHT22;62605;49.432;8.680;2023-08-24T02:02:12;20.80;1.00
10417;DHT22;62605;49.432;8.680;2023-08-24T02:04:40;20.80;1.00
10417;DHT22;62605;49.432;8.680;2023-08-24T02:07:07;20.90;1.00
10417;DHT22;62605;49.432;8.680;2023-08-24T02:09:35;20.80;1.00
10417;DHT22;62605;49.432;8.680;2023-08-24T02:12:02;20.80;1.00
10417;DHT22;62605;49.432;8.680;2023-08-24T02:14:29;20.90;1.00
10417;DHT22;62605;49.432;8.680;2023-08-24T02:16:57;20.90;1.00
10417;DHT22;62605;49.432;8.680;2023-08-24T02:19:25;20.80;1.00
10417;DHT22;62605;49.432;8.680;2023-08-24T02:21:52;21.00;1.00
10417;DHT22;62605;49.432;8.680;2023-08-24T02:24:19;20.90;1.00
10417;DHT22;62605;49.432;8.680;2023-08-24T02:26:46;20.90;1.00
10417;DHT22;62605;49.432;8.680;2023-08-24T02:29:13;20.80;1.00
10417;DHT22;62605;49.432;8.680;2023-08-24T02:31:40;20.80;1.00
10417;DHT22;62605;49.432;8.680;2023-08-24T02:34:12;20.80;1.00
10417;DHT22;62605;49.432;8.680;2023-08-24T02:36:39;20.80;1.00
10417;DHT22;62605;49.432;8.680;2023-08-24T02:39:06;20.80;1.00
10417;DHT22;62605;49.432;8.680;2023-08-24T02:41:34;20.70;1.00
10417;DHT22;62605;49.432;8.680;2023-08-24T02:44:02;20.60;1.00
10417;DHT22;62605;49.432;8.680;2023-08-24T02:46:29;20.60;1.00
10417;DHT22;62605;49.432;8.680;2023-08-24T02:48:56;20.50;1.00
10417;DHT22;62605;49.432;8.680;2023-08-24T02:51:25;20.50;1.00
10417;DHT22;62605;49.432;8.680;2023-08-24T02:53:52;20.40;1.00
10417;DHT22;62605;49.432;8.680;2023-08-24T02:56:19;20.40;1.00
10417;DHT22;62605;49.432;8.680;2023-08-24T02:58:46;20.50;1.00
10417;DHT22;62605;49.432;8.680;2023-08-24T03:01:13;20.40;1.00
10417;DHT22;62605;49.432;8.680;2023-08-24T03:03:40;20.40;1.00
10417;DHT22;62605;49.432;8.680;2023-08-24T03:06:08;20.20;1.00
10417;DHT22;62605;49.432;8.680;2023-08-24T03:08:36;20.20;1.00
10417;DHT22;62605;49.432;8.680;2023-08-24T03:11:04;20.20;1.00
10417;DHT22;62605;49.432;8.680;2023-08-24T03:13:31;20.10;1.00
10417;DHT22;62605;49.432;8.680;2023-08-24T03:16:03;20.20;1.00
10417;DHT22;62605;49.432;8.680;2023-08-24T03:18:31;20.20;1.00
10417;DHT22;62605;49.432;8.680;2023-08-24T03:20:58;20.20;1.00
10417;DHT22;62605;49.432;8.680;2023-08-24T03:23:25;20.10;1.00
10417;DHT22;62605;49.432;8.680;2023-08-24T03:25:55;20.20;1.00
10417;DHT22;62605;49.432;8.680;2023-08-24T03:28:23;20.20;1.00
10417;DHT22;62605;49.432;8.680;2023-08-24T03:30:51;20.10;1.00
10417;DHT22;62605;49.432;8.680;2023-08-24T03:33:21;20.10;1.00
10417;DHT22;62605;49.432;8.680;2023-08-24T03:35:48;20.10;1.00
10417;DHT22;62605;49.432;8.680;2023-08-24T03:38:16;20.10;1.00
10417;DHT22;62605;49.432;8.680;2023-08-24T03:40:43;20.10;1.00
10417;DHT22;62605;49.432;8.680;2023-08-24T03:43:11;20.10;1.00
10417;DHT22;62605;49.432;8.680;2023-08-24T03:45:39;20.10;1.00
10417;DHT22;62605;49.432;8.680;2023-08-24T03:48:06;20.10;1.00
10417;DHT22;62605;49.432;8.680;2023-08-24T03:50:33;20.10;1.00
10417;DHT22;62605;49.432;8.680;2023-08-24T03:53:00;20.10;1.00
10417;DHT22;62605;49.432;8.680;2023-08-24T03:55:28;20.50;1.00
10417;DHT22;62605;49.432;8.680;2023-08-24T03:57:55;21.60;1.00
10417;DHT22;62605;49.432;8.680;2023-08-24T04:00:24;22.20;1.00
10417;DHT22;62605;49.432;8.680;2023-08-24T04:02:51;22.60;1.00
10417;DHT22;62605;49.432;8.680;2023-08-24T04:05:19;22.70;1.00
10417;DHT22;62605;49.432;8.680;2023-08-24T04:07:46;22.90;1.00
10417;DHT22;62605;49.432;8.680;2023-08-24T04:10:13;22.90;1.00
10417;DHT22;62605;49.432;8.680;2023-08-24T04:12:40;23.00;1.00
10417;DHT22;62605;49.432;8.680;2023-08-24T04:15:09;23.00;1.00
10417;DHT22;62605;49.432;8.680;2023-08-24T04:17:38;23.00;1.00
10417;DHT22;62605;49.432;8.680;2023-08-24T04:20:06;23.20;1.00
10417;DHT22;62605;49.432;8.680;2023-08-24T04:22:34;23.20;1.00
10417;DHT22;62605;49.432;8.680;2023-08-24T04:25:01;23.20;1.00
10417;DHT22;62605;49.432;8.680;2023-08-24T04:27:29;23.20;1.00
10417;DHT22;62605;49.432;8.680;2023-08-24T04:29:56;23.20;1.00
10417;DHT22;62605;49.432;8.680;2023-08-24T04:32:23;23.00;1.00
10417;DHT22;62605;49.432;8.680;2023-08-24T04:34:52;22.90;1.00
10417;DHT22;62605;49.432;8.680;2023-08-24T04:37:19;22.70;1.00
10417;DHT22;62605;49.432;8.680;2023-08-24T04:39:46;22.20;1.00
10417;DHT22;62605;49.432;8.680;2023-08-24T04:42:13;21.70;1.00
10417;DHT22;62605;49.432;8.680;2023-08-24T04:44:41;21.50;1.00
10417;DHT22;62605;49.432;8.680;2023-08-24T04:47:08;21.30;1.00
10417;DHT22;62605;49.432;8.680;2023-08-24T04:49:36;21.10;1.00
10417;DHT22;62605;49.432;8.680;2023-08-24T04:52:05;21.10;1.00
10417;DHT22;62605;49.432;8.680;2023-08-24T04:54:32;21.10;1.00
10417;DHT22;62605;49.432;8.680;2023-08-24T04:56:59;20.90;1.00
10417;DHT22;62605;49.432;8.680;2023-08-24T04:59:27;20.80;1.00
10417;DHT22;62605;49.432;8.680;2023-08-24T05:01:54;20.60;1.00
10417;DHT22;62605;49.432;8.680;2023-08-24T05:04:22;20.60;1.00
10417;DHT22;62605;49.432;8.680;2023-08-24T05:06:49;20.70;1.00
10417;DHT22;62605;49.432;8.680;2023-08-24T05:09:17;20.60;1.00
10417;DHT22;62605;49.432;8.680;2023-08-24T05:11:44;20.70;1.00
10417;DHT22;62605;49.432;8.680;2023-08-24T05:14:11;20.70;1.00
10417;DHT22;62605;49.432;8.680;2023-08-24T05:16:39;20.70;1.00
10417;DHT22;62605;49.432;8.680;2023-08-24T05:19:06;20.70;1.00
10417;DHT22;62605;49.432;8.680;2023-08-24T05:21:33;20.70;1.00
10417;DHT22;62605;49.432;8.680;2023-08-24T05:24:01;20.70;1.00
10417;DHT22;62605;49.432;8.680;2023-08-24T05:26:31;20.70;1.00
10417;DHT22;62605;49.432;8.680;2023-08-24T05:28:58;20.50;1.00
10417;DHT22;62605;49.432;8.680;2023-08-24T05:31:25;20.60;1.00
10417;DHT22;62605;49.432;8.680;2023-08-24T05:33:52;20.80;1.00
10417;DHT22;62605;49.432;8.680;2023-08-24T05:36:19;20.70;1.00
10417;DHT22;62605;49.432;8.680;2023-08-24T05:38:48;20.70;1.00
10417;DHT22;62605;49.432;8.680;2023-08-24T05:41:15;20.70;1.00
10417;DHT22;62605;49.432;8.680;2023-08-24T05:43:43;20.60;1.00
10417;DHT22;62605;49.432;8.680;2023-08-24T05:46:10;20.70;1.00
10417;DHT22;62605;49.432;8.680;2023-08-24T05:48:37;20.60;1.00
10417;DHT22;62605;49.432;8.680;2023-08-24T05:51:04;20.50;1.00
10417;DHT22;62605;49.432;8.680;2023-08-24T05:53:34;20.50;1.00
10417;DHT22;62605;49.432;8.680;2023-08-24T05:56:01;20.50;1.00
10417;DHT22;62605;49.432;8.680;2023-08-24T05:58:29;20.60;1.00
10417;DHT22;62605;49.432;8.680;2023-08-24T06:00:58;20.60;1.00
10417;DHT22;62605;49.432;8.680;2023-08-24T06:03:26;20.60;1.00
10417;DHT22;62605;49.432;8.680;2023-08-24T06:05:53;20.60;1.00
10417;DHT22;62605;49.432;8.680;2023-08-24T06:08:21;20.60;1.00
10417;DHT22;62605;49.432;8.680;2023-08-24T06:10:48;20.70;1.00
10417;DHT22;62605;49.432;8.680;2023-08-24T06:13:15;20.80;1.00
10417;DHT22;62605;49.432;8.680;2023-08-24T06:15:42;21.00;1.00
10417;DHT22;62605;49.432;8.680;2023-08-24T06:18:11;21.00;1.00
10417;DHT22;62605;49.432;8.680;2023-08-24T06:20:38;21.10;1.00
10417;DHT22;62605;49.432;8.680;2023-08-24T06:23:05;21.30;1.00
10417;DHT22;62605;49.432;8.680;2023-08-24T06:25:33;21.40;1.00
10417;DHT22;62605;49.432;8.680;2023-08-24T06:28:00;21.30;1.00
10417;DHT22;62605;49.432;8.680;2023-08-24T06:30:29;21.30;1.00
10417;DHT22;62605;49.432;8.680;2023-08-24T06:32:58;21.40;1.00
10417;DHT22;62605;49.432;8.680;2023-08-24T06:35:27;21.40;1.00
10417;DHT22;62605;49.432;8.680;2023-08-24T06:37:54;21.50;1.00
10417;DHT22;62605;49.432;8.680;2023-08-24T06:40:21;21.50;1.00
10417;DHT22;62605;49.432;8.680;2023-08-24T06:42:48;21.40;1.00
10417;DHT22;62605;49.432;8.680;2023-08-24T06:45:16;21.40;1.00
10417;DHT22;62605;49.432;8.680;2023-08-24T06:47:44;21.30;1.00
10417;DHT22;62605;49.432;8.680;2023-08-24T06:50:11;21.40;1.00
10417;DHT22;62605;49.432;8.680;2023-08-24T06:52:40;21.30;1.00
10417;DHT22;62605;49.432;8.680;2023-08-24T06:55:08;21.40;1.00
10417;DHT22;62605;49.432;8.680;2023-08-24T06:57:36;21.40;1.00
10417;DHT22;62605;49.432;8.680;2023-08-24T07:00:03;21.50;1.00
10417;DHT22;62605;49.432;8.680;2023-08-24T07:02:34;21.50;1.00
10417;DHT22;62605;49.432;8.680;2023-08-24T07:05:02;21.50;1.00
10417;DHT22;62605;49.432;8.680;2023-08-24T07:07:31;21.50;1.00
10417;DHT22;62605;49.432;8.680;2023-08-24T07:10:00;21.50;1.00
10417;DHT22;62605;49.432;8.680;2023-08-24T07:12:27;21.60;1.00
10417;DHT22;62605;49.432;8.680;2023-08-24T07:14:55;21.60;1.00
10417;DHT22;62605;49.432;8.680;2023-08-24T07:17:22;21.80;1.00
10417;DHT22;62605;49.432;8.680;2023-08-24T07:19:49;21.80;1.00
10417;DHT22;62605;49.432;8.680;2023-08-24T07:22:16;21.90;1.00
10417;DHT22;62605;49.432;8.680;2023-08-24T07:24:43;22.10;1.00
10417;DHT22;62605;49.432;8.680;2023-08-24T07:27:12;22.30;1.00
10417;DHT22;62605;49.432;8.680;2023-08-24T07:29:39;22.10;1.00
10417;DHT22;62605;49.432;8.680;2023-08-24T07:32:07;22.30;1.00
10417;DHT22;62605;49.432;8.680;2023-08-24T07:34:34;22.40;1.00
10417;DHT22;62605;49.432;8.680;2023-08-24T07:37:01;22.40;1.00
10417;DHT22;62605;49.432;8.680;2023-08-24T07:39:28;22.60;1.00
10417;DHT22;62605;49.432;8.680;2023-08-24T07:41:56;22.80;1.00
10417;DHT22;62605;49.432;8.680;2023-08-24T07:44:24;23.00;1.00
10417;DHT22;62605;49.432;8.680;2023-08-24T07:46:52;22.90;1.00
10417;DHT22;62605;49.432;8.680;2023-08-24T07:49:19;22.80;1.00
10417;DHT22;62605;49.432;8.680;2023-08-24T07:51:46;22.80;1.00
10417;DHT22;62605;49.432;8.680;2023-08-24T07:54:13;22.90;1.00
10417;DHT22;62605;49.432;8.680;2023-08-24T07:56:40;23.00;1.00
10417;DHT22;62605;49.432;8.680;2023-08-24T07:59:08;23.30;1.00
10417;DHT22;62605;49.432;8.680;2023-08-24T08:01:36;23.30;1.00
10417;DHT22;62605;49.432;8.680;2023-08-24T08:04:03;23.50;1.00
10417;DHT22;62605;49.432;8.680;2023-08-24T08:06:30;23.20;1.00
10417;DHT22;62605;49.432;8.680;2023-08-24T08:08:57;23.20;1.00
10417;DHT22;62605;49.432;8.680;2023-08-24T08:11:24;23.40;1.00
10417;DHT22;62605;49.432;8.680;2023-08-24T08:13:52;23.50;1.00
10417;DHT22;62605;49.432;8.680;2023-08-24T08:16:19;23.40;1.00
10417;DHT22;62605;49.432;8.680;2023-08-24T08:18:47;23.40;1.00
10417;DHT22;62605;49.432;8.680;2023-08-24T08:21:16;23.50;1.00
10417;DHT22;62605;49.432;8.680;2023-08-24T08:23:44;23.70;1.00
10417;DHT22;62605;49.432;8.680;2023-08-24T08:26:12;23.80;1.00
10417;DHT22;62605;49.432;8.680;2023-08-24T08:28:40;24.00;1.00
10417;DHT22;62605;49.432;8.680;2023-08-24T08:31:07;24.00;1.00
10417;DHT22;62605;49.432;8.680;2023-08-24T08:33:34;24.10;1.00
10417;DHT22;62605;49.432;8.680;2023-08-24T08:36:03;24.50;1.00
10417;DHT22;62605;49.432;8.680;2023-08-24T08:38:30;24.90;1.00
10417;DHT22;62605;49.432;8.680;2023-08-24T08:41:02;25.20;1.00
10417;DHT22;62605;49.432;8.680;2023-08-24T08:43:30;25.60;1.00
10417;DHT22;62605;49.432;8.680;2023-08-24T08:45:58;25.50;1.00
10417;DHT22;62605;49.432;8.680;2023-08-24T08:48:26;25.70;1.00
10417;DHT22;62605;49.432;8.680;2023-08-24T08:50:54;25.90;1.00
10417;DHT22;62605;49.432;8.680;2023-08-24T08:53:24;25.60;1.00
10417;DHT22;62605;49.432;8.680;2023-08-24T08:55:52;25.60;1.00
10417;DHT22;62605;49.432;8.680;2023-08-24T08:58:20;25.80;1.00
10417;DHT22;62605;49.432;8.680;2023-08-24T09:00:48;25.90;1.00
10417;DHT22;62605;49.432;8.680;2023-08-24T09:03:18;26.00;1.00
10417;DHT22;62605;49.432;8.680;2023-08-24T09:05:45;26.10;1.00
10417;DHT22;62605;49.432;8.680;2023-08-24T09:08:15;26.30;1.00
10417;DHT22;62605;49.432;8.680;2023-08-24T09:10:44;26.40;1.00
10417;DHT22;62605;49.432;8.680;2023-08-24T09:13:11;26.70;1.00
10417;DHT22;62605;49.432;8.680;2023-08-24T09:15:38;26.80;1.00
10417;DHT22;62605;49.432;8.680;2023-08-24T09:18:06;26.80;1.00
10417;DHT22;62605;49.432;8.680;2023-08-24T09:20:34;27.00;1.00
10417;DHT22;62605;49.432;8.680;2023-08-24T09:23:01;27.20;1.00
10417;DHT22;62605;49.432;8.680;2023-08-24T09:25:29;27.40;1.00
10417;DHT22;62605;49.432;8.680;2023-08-24T09:28:11;27.40;1.00
10417;DHT22;62605;49.432;8.680;2023-08-24T09:30:39;27.50;1.00
10417;DHT22;62605;49.432;8.680;2023-08-24T09:33:10;27.80;1.00
10417;DHT22;62605;49.432;8.680;2023-08-24T09:35:37;28.00;1.00
10417;DHT22;62605;49.432;8.680;2023-08-24T09:38:17;27.60;1.00
10417;DHT22;62605;49.432;8.680;2023-08-24T09:40:46;27.70;1.00
10417;DHT22;62605;49.432;8.680;2023-08-24T09:43:15;28.00;1.00
10417;DHT22;62605;49.432;8.680;2023-08-24T09:45:49;28.10;1.00
10417;DHT22;62605;49.432;8.680;2023-08-24T09:48:17;28.00;1.00
10417;DHT22;62605;49.432;8.680;2023-08-24T09:50:45;27.80;1.00
10417;DHT22;62605;49.432;8.680;2023-08-24T09:53:18;27.80;1.00
10417;DHT22;62605;49.432;8.680;2023-08-24T09:55:49;27.90;1.00
10417;DHT22;62605;49.432;8.680;2023-08-24T09:58:21;28.10;1.00
10417;DHT22;62605;49.432;8.680;2023-08-24T10:00:49;28.30;1.00
10417;DHT22;62605;49.432;8.680;2023-08-24T10:03:18;28.50;1.00
10417;DHT22;62605;49.432;8.680;2023-08-24T10:05:51;28.20;1.00
10417;DHT22;62605;49.432;8.680;2023-08-24T10:08:22;28.30;1.00
10417;DHT22;62605;49.432;8.680;2023-08-24T10:10:54;28.50;1.00
10417;DHT22;62605;49.432;8.680;2023-08-24T10:13:31;28.40;1.00
10417;DHT22;62605;49.432;8.680;2023-08-24T10:16:02;28.30;1.00
10417;DHT22;62605;49.432;8.680;2023-08-24T10:18:30;28.40;1.00
10417;DHT22;62605;49.432;8.680;2023-08-24T10:20:58;28.60;1.00
10417;DHT22;62605;49.432;8.680;2023-08-24T10:23:28;28.50;1.00
10417;DHT22;62605;49.432;8.680;2023-08-24T10:25:56;28.60;1.00
10417;DHT22;62605;49.432;8.680;2023-08-24T10:28:26;28.90;1.00
10417;DHT22;62605;49.432;8.680;2023-08-24T10:30:54;28.90;1.00
10417;DHT22;62605;49.432;8.680;2023-08-24T10:33:22;28.80;1.00
10417;DHT22;62605;49.432;8.680;2023-08-24T10:35:50;29.00;1.00
10417;DHT22;62605;49.432;8.680;2023-08-24T10:38:24;29.00;1.00
10417;DHT22;62605;49.432;8.680;2023-08-24T10:40:52;28.90;1.00
10417;DHT22;62605;49.432;8.680;2023-08-24T10:43:20;28.90;1.00
10417;DHT22;62605;49.432;8.680;2023-08-24T10:45:59;29.00;1.00
10417;DHT22;62605;49.432;8.680;2023-08-24T10:48:28;29.00;1.00
10417;DHT22;62605;49.432;8.680;2023-08-24T10:51:18;29.10;1.00
10417;DHT22;62605;49.432;8.680;2023-08-24T10:53:48;29.40;1.00
10417;DHT22;62605;49.432;8.680;2023-08-24T10:56:18;29.30;1.00
10417;DHT22;62605;49.432;8.680;2023-08-24T10:58:46;29.50;1.00
10417;DHT22;62605;49.432;8.680;2023-08-24T11:01:19;29.50;1.00
10417;DHT22;62605;49.432;8.680;2023-08-24T11:03:54;29.50;1.00
10417;DHT22;62605;49.432;8.680;2023-08-24T11:06:22;29.40;1.00
10417;DHT22;62605;49.432;8.680;2023-08-24T11:09:05;29.50;1.00
10417;DHT22;62605;49.432;8.680;2023-08-24T11:11:35;29.60;1.00
10417;DHT22;62605;49.432;8.680;2023-08-24T11:14:15;29.70;1.00
10417;DHT22;62605;49.432;8.680;2023-08-24T11:16:45;29.60;1.00
10417;DHT22;62605;49.432;8.680;2023-08-24T11:19:13;29.90;1.00
10417;DHT22;62605;49.432;8.680;2023-08-24T11:21:41;30.10;1.00
10417;DHT22;62605;49.432;8.680;2023-08-24T11:24:09;30.30;1.00
10417;DHT22;62605;49.432;8.680;2023-08-24T11:26:41;30.20;1.00
10417;DHT22;62605;49.432;8.680;2023-08-24T11:29:11;30.30;1.00
10417;DHT22;62605;49.432;8.680;2023-08-24T11:31:39;30.10;1.00
10417;DHT22;62605;49.432;8.680;2023-08-24T11:34:08;30.20;1.00
10417;DHT22;62605;49.432;8.680;2023-08-24T11:36:42;30.20;1.00
10417;DHT22;62605;49.432;8.680;2023-08-24T11:39:15;30.50;1.00
10417;DHT22;62605;49.432;8.680;2023-08-24T11:41:43;30.60;1.00
10417;DHT22;62605;49.432;8.680;2023-08-24T11:44:11;30.20;1.00
10417;DHT22;62605;49.432;8.680;2023-08-24T11:46:40;30.20;1.00
10417;DHT22;62605;49.432;8.680;2023-08-24T11:49:09;30.20;1.00
10417;DHT22;62605;49.432;8.680;2023-08-24T11:51:36;30.30;1.00
10417;DHT22;62605;49.432;8.680;2023-08-24T11:54:04;30.50;1.00
10417;DHT22;62605;49.432;8.680;2023-08-24T11:56:31;30.40;1.00
10417;DHT22;62605;49.432;8.680;2023-08-24T11:58:58;30.60;1.00
10417;DHT22;62605;49.432;8.680;2023-08-24T12:01:26;30.60;1.00
10417;DHT22;62605;49.432;8.680;2023-08-24T12:03:54;30.40;1.00
10417;DHT22;62605;49.432;8.680;2023-08-24T12:06:26;30.30;1.00
10417;DHT22;62605;49.432;8.680;2023-08-24T12:08:54;30.40;1.00
10417;DHT22;62605;49.432;8.680;2023-08-24T12:11:21;30.40;1.00
10417;DHT22;62605;49.432;8.680;2023-08-24T12:13:52;30.60;1.00
10417;DHT22;62605;49.432;8.680;2023-08-24T12:16:19;30.90;1.00
10417;DHT22;62605;49.432;8.680;2023-08-24T12:18:48;30.50;1.00
10417;DHT22;62605;49.432;8.680;2023-08-24T12:21:16;30.80;1.00
10417;DHT22;62605;49.432;8.680;2023-08-24T12:23:55;30.70;1.00
10417;DHT22;62605;49.432;8.680;2023-08-24T12:26:22;30.90;1.00
10417;DHT22;62605;49.432;8.680;2023-08-24T12:28:50;30.90;1.00
10417;DHT22;62605;49.432;8.680;2023-08-24T12:31:18;30.90;1.00
10417;DHT22;62605;49.432;8.680;2023-08-24T12:33:56;31.20;1.00
10417;DHT22;62605;49.432;8.680;2023-08-24T12:36:24;31.50;1.00
10417;DHT22;62605;49.432;8.680;2023-08-24T12:38:53;31.70;1.00
10417;DHT22;62605;49.432;8.680;2023-08-24T12:41:21;31.50;1.00
10417;DHT22;62605;49.432;8.680;2023-08-24T12:43:49;31.40;1.00
10417;DHT22;62605;49.432;8.680;2023-08-24T12:46:16;31.70;1.00
10417;DHT22;62605;49.432;8.680;2023-08-24T12:48:43;30.90;1.00
10417;DHT22;62605;49.432;8.680;2023-08-24T12:51:11;31.00;1.00
10417;DHT22;62605;49.432;8.680;2023-08-24T12:53:38;31.20;1.00
10417;DHT22;62605;49.432;8.680;2023-08-24T12:56:07;31.50;1.00
10417;DHT22;62605;49.432;8.680;2023-08-24T12:58:34;31.40;1.00
10417;DHT22;62605;49.432;8.680;2023-08-24T13:01:01;31.30;1.00
10417;DHT22;62605;49.432;8.680;2023-08-24T13:03:29;31.20;1.00
10417;DHT22;62605;49.432;8.680;2023-08-24T13:05:56;31.10;1.00
10417;DHT22;62605;49.432;8.680;2023-08-24T13:08:23;31.30;1.00
10417;DHT22;62605;49.432;8.680;2023-08-24T13:10:52;31.10;1.00
10417;DHT22;62605;49.432;8.680;2023-08-24T13:13:20;31.20;1.00
10417;DHT22;62605;49.432;8.680;2023-08-24T13:15:49;31.20;1.00
10417;DHT22;62605;49.432;8.680;2023-08-24T13:18:17;30.90;1.00
10417;DHT22;62605;49.432;8.680;2023-08-24T13:20:45;30.80;1.00
10417;DHT22;62605;49.432;8.680;2023-08-24T13:23:12;30.70;1.00
10417;DHT22;62605;49.432;8.680;2023-08-24T13:25:40;30.80;1.00
10417;DHT22;62605;49.432;8.680;2023-08-24T13:28:07;31.10;1.00
10417;DHT22;62605;49.432;8.680;2023-08-24T13:30:36;31.70;1.00
10417;DHT22;62605;49.432;8.680;2023-08-24T13:33:04;32.30;1.00
10417;DHT22;62605;49.432;8.680;2023-08-24T13:35:32;33.00;1.00
10417;DHT22;62605;49.432;8.680;2023-08-24T13:38:00;32.60;1.00
10417;DHT22;62605;49.432;8.680;2023-08-24T13:40:27;33.30;1.00
10417;DHT22;62605;49.432;8.680;2023-08-24T13:42:54;32.40;1.00
10417;DHT22;62605;49.432;8.680;2023-08-24T13:45:21;32.10;1.00
10417;DHT22;62605;49.432;8.680;2023-08-24T13:47:50;32.30;1.00
10417;DHT22;62605;49.432;8.680;2023-08-24T13:50:17;32.10;1.00
10417;DHT22;62605;49.432;8.680;2023-08-24T13:52:44;31.90;1.00
10417;DHT22;62605;49.432;8.680;2023-08-24T13:55:11;31.30;1.00
10417;DHT22;62605;49.432;8.680;2023-08-24T13:57:39;30.90;1.00
10417;DHT22;62605;49.432;8.680;2023-08-24T14:00:07;31.00;1.00
10417;DHT22;62605;49.432;8.680;2023-08-24T14:02:35;31.10;1.00
10417;DHT22;62605;49.432;8.680;2023-08-24T14:05:04;31.00;1.00
10417;DHT22;62605;49.432;8.680;2023-08-24T14:07:34;31.00;1.00
10417;DHT22;62605;49.432;8.680;2023-08-24T14:10:02;31.00;1.00
10417;DHT22;62605;49.432;8.680;2023-08-24T14:12:30;30.90;1.00
10417;DHT22;62605;49.432;8.680;2023-08-24T14:14:57;30.80;1.00
10417;DHT22;62605;49.432;8.680;2023-08-24T14:17:24;30.60;1.00
10417;DHT22;62605;49.432;8.680;2023-08-24T14:19:51;30.50;1.00
10417;DHT22;62605;49.432;8.680;2023-08-24T14:22:19;30.30;1.00
10417;DHT22;62605;49.432;8.680;2023-08-24T14:24:46;30.00;1.00
10417;DHT22;62605;49.432;8.680;2023-08-24T14:27:14;29.80;1.00
10417;DHT22;62605;49.432;8.680;2023-08-24T14:29:41;29.60;1.00
10417;DHT22;62605;49.432;8.680;2023-08-24T14:32:08;29.50;1.00
10417;DHT22;62605;49.432;8.680;2023-08-24T14:34:35;29.30;1.00
10417;DHT22;62605;49.432;8.680;2023-08-24T14:37:02;29.10;1.00
10417;DHT22;62605;49.432;8.680;2023-08-24T14:39:31;28.90;1.00
10417;DHT22;62605;49.432;8.680;2023-08-24T14:41:58;28.80;1.00
10417;DHT22;62605;49.432;8.680;2023-08-24T14:44:25;28.60;1.00
10417;DHT22;62605;49.432;8.680;2023-08-24T14:46:52;28.20;1.00
10417;DHT22;62605;49.432;8.680;2023-08-24T14:49:19;27.80;1.00
10417;DHT22;62605;49.432;8.680;2023-08-24T14:51:46;27.60;1.00
10417;DHT22;62605;49.432;8.680;2023-08-24T14:54:16;27.40;1.00
10417;DHT22;62605;49.432;8.680;2023-08-24T14:56:44;27.30;1.00
10417;DHT22;62605;49.432;8.680;2023-08-24T14:59:15;27.20;1.00
10417;DHT22;62605;49.432;8.680;2023-08-24T15:01:45;27.10;1.00
10417;DHT22;62605;49.432;8.680;2023-08-24T15:04:12;27.10;1.00
10417;DHT22;62605;49.432;8.680;2023-08-24T15:06:39;26.80;1.00
10417;DHT22;62605;49.432;8.680;2023-08-24T15:09:06;26.50;1.00
10417;DHT22;62605;49.432;8.680;2023-08-24T15:11:33;26.00;1.00
10417;DHT22;62605;49.432;8.680;2023-08-24T15:14:02;25.70;1.00
10417;DHT22;62605;49.432;8.680;2023-08-24T15:16:29;25.40;1.00
10417;DHT22;62605;49.432;8.680;2023-08-24T15:18:56;25.20;1.00
10417;DHT22;62605;49.432;8.680;2023-08-24T15:21:23;25.00;1.00
10417;DHT22;62605;49.432;8.680;2023-08-24T15:23:50;24.90;1.00
10417;DHT22;62605;49.432;8.680;2023-08-24T15:26:17;25.50;1.00
10417;DHT22;62605;49.432;8.680;2023-08-24T15:29:08;25.90;1.00
10417;DHT22;62605;49.432;8.680;2023-08-24T15:31:35;25.70;1.00
10417;DHT22;62605;49.432;8.680;2023-08-24T15:34:02;26.00;1.00
10417;DHT22;62605;49.432;8.680;2023-08-24T15:36:29;25.80;1.00
10417;DHT22;62605;49.432;8.680;2023-08-24T15:38:57;25.80;1.00
10417;DHT22;62605;49.432;8.680;2023-08-24T15:41:24;26.10;1.00
10417;DHT22;62605;49.432;8.680;2023-08-24T15:43:51;26.30;1.00
10417;DHT22;62605;49.432;8.680;2023-08-24T15:46:20;26.50;1.00
10417;DHT22;62605;49.432;8.680;2023-08-24T15:48:47;26.80;1.00
10417;DHT22;62605;49.432;8.680;2023-08-24T15:51:16;27.10;1.00